AirNav   TITAN Aviation Fuels
 
 1380 users online  

6MO7 Riverside Landings Airport
Ozark, Missouri, USA

GOING TO OZARK?


FAA INFORMATION EFFECTIVE 01 DECEMBER 2022

Location

FAA Identifier: 6MO7
Lat/Long: 37-01-45.1900N 093-10-00.6540W
37-01.753167N 093-10.010900W
37.0292194,-93.1668483
(estimated)
Elevation: 1280 ft. / 390 m (estimated)
Variation: 04E (1985)
From city: 2 miles NE of OZARK, MO
Time zone: UTC -6 (UTC -5 during Daylight Saving Time)
Zip code: 65753

Airport Operations

Airport use: Private use. Permission required prior to landing
Activation date: 02/1971
Control tower: no
ARTCC: KANSAS CITY CENTER
FSS: COLUMBIA FLIGHT SERVICE STATION
Attendance: UNATNDD
Wind indicator: yes
Segmented circle: no

Airport Communications

WX ASOS at SGF (17 nm NW): PHONE 417-863-6158

Nearby radio navigation aids

VOR radial/distance  VOR name  Freq  Var
DGDr270/13.9DOGWOOD VORTAC109.4001E
SGFr154/21.2SPRINGFIELD VORTAC116.9004E

Airport Services

Airframe service: NONE
Powerplant service: NONE

Runway Information

Runway N/S

Dimensions: 2700 x 50 ft. / 823 x 15 m
Surface: turf
RUNWAY N  RUNWAY S
Traffic pattern: leftleft

Airport Ownership and Management from official FAA records

Ownership: Privately-owned
Owner: PETE DREHER
RT 1 BOX 104
LAMPE, AZ 65681
Phone 417-779-5282
Manager: PETE DREHER
RT 1 BOX 104
LAMPE, MO 65681
Phone 417-779-5282

Airport Operational Statistics

Aircraft based on the field: 1
Single engine airplanes: 1
    

Additional Remarks

FOR CD CTC SPRINGFIELD APCH AT 417-868-5620/5619.

Instrument Procedures

There are no published instrument procedures at 6MO7.

Some nearby airports with instrument procedures:

3DW - Downtown Airport (12 nm N)
KSGF - Springfield-Branson National Airport (17 nm NW)
KFWB - Branson West Municipal Airport - Emerson Field (23 nm SW)
KAOV - Ava Bill Martin Memorial Airport (23 nm E)
KPLK - M Graham Clark Downtown Airport (24 nm S)
 
Loc | Ops | Rwys | IFR | FBO | Links
Com | Nav | Svcs | Stats | Notes

Branson Jet Center
AirBoss

 
Area around 6MO7 (Riverside Landings Airport)
 
Road maps at: MapQuest Bing Google
 
Aerial photo
No photo
 
Sectional chart

 
Airport distance calculator
Flying to Riverside Landings Airport? Find the distance to fly.

From to 6MO7

Sunrise and sunset
Times for 02-Dec-2022
 Local
(UTC-6)
 Zulu
(UTC)
Morning civil twilight06:4112:41
Sunrise07:0913:09
Sunset16:5522:55
Evening civil twilight17:2423:24

Current date and time
Zulu (UTC)  02-Dec-2022 17:46:42
Local (UTC-6)  02-Dec-2022 11:46:42
 
METAR
KSGF 
16nm NW 
021652Z 18018G27KT 10SM OVC017 12/08 A2992 RMK AO2 PK WND 19030/1632 SLP131 T01220078
KFWB 
23nm SW 
021735Z AUTO VRB05G19KT 10SM OVC014 13/09 A2996 RMK AO2
KBBG 
30nm S 
021645Z 17012G18KT 10SM OVC017 13/09 A3001
TAF
KSGF 
16nm NW 
021120Z 0212/0312 18018G25KT P6SM OVC023 WS020/22055KT FM021800 18026G39KT P6SM BKN018 WS020/22060KT FM030100 22022G30KT P6SM SCT018 FM030600 33016G22KT P6SM SCT250
NOTAMs
Click for the latest NOTAMs
NOTAMs are issued by the DoD/FAA and will open in a separate window not controlled by AirNav.

 

 
 

Would you like to see your business listed on this page?

 If your business provides an interesting product or service to pilots, flight crews, aircraft, or users of the Riverside Landings Airport, you should consider listing it here.  To start the listing process, click on the button below
 
Add a business
 

Other Pages about Riverside Landings Airport

Update a link
 
Copyright © AirNav, LLC. All rights reserved. Privacy Policy  Contact